Surat Airport
VASU : now visible

Airfield :











YOU CAN JOIN US ON...

 
LOGIN :

Register | Disclaimer

   EN    FR    IT 

 









Legend :    VFR   Marginal VFR   IFR   Intensive IFR   Very Intensive IFR
Visi :
Ceiling :
>= 8 km
>= 3000ft
5 to 8 km
1000 to 3000 ft
1500m to 5 km
500 to 1000 ft
800 to 1500m
200 to 500 ft
< 800m
< 200 ft
Symbols :   Thunderstorms  Fog  Heavy snow  Heavy precipitations  Wind > 20 kt






- Airport Elevation : 16 ft
- IATA code : STV


VASU - Surat

METAR N/A
TAF TAF VASU
Valid from the 22 at 21:00 until the 23 at 06:00 UTC


222000Z 2221/2306 20006KT 4000 -SHRA HZ FEW012 SCT020 FEW030TCU BKN080
TEMPO 2322/2324 23004KT 3000 -TSRA -SHRA
BECMG 2301/2303 20003KT 2000 -SHRA BR
BECMG 2304/2306 20006KT 4000 HZ



MET'MAP, your aeronautical weather chart ! - Copyright ORBIFLY December 2007 - Disclaimer

ORBIFLY MET'MAP TEAM :

Programming & Development : Alexandra Zaïnal
Concept & original design : Baudouin d'Aumeries
Assistance for programming : Marc-Olivier Méhu
Technical & hardware support : Manuel Goepfert

Contact : metmap@orbifly.com




SOURCES & CREDITS :

   NOAA       Earth
Advisory